北海道METAR電文


稚内(RJCW)
03/02 18:12
RJCW 020912Z 29018KT 4900 R08/2000N BLSN -SHSN FEW005 SCT010
BKN020 M04/M07 Q0990 RMK 1ST005 3ST010 5CU020 A2924=

利尻(RJER)
03/02 16:00
RJER 020700Z 23028KT 0100 +SN ////// M05/M07 Q0991 RMK A2928=

紋別(RJEB)
03/02 16:00
METAR RJEB 020700Z 22010KT 9999 -SHSN FEW030 SCT040 BKN050 M05/M13
Q0997 RMK 1CU030 3CU040 6CU050 A2944=

女満別(RJCM)
03/02 20:00
METAR RJCM 021100Z 21014KT 9999 FEW030 SCT060 M06/M14 Q0998 RMK
1CU030 4CU060 A2949=

中標津(RJCN)
03/02 18:00
METAR RJCN 020900Z 23012KT 9999 FEW025 M06/M16 Q0999 RMK 1CU025
A2952=

釧路(RJCK)
03/03 04:00
METAR RJCK 021900Z AUTO 25015KT 9999 NCD M06/M15 Q1005 RMK A2969=

十勝(RJCT)
03/03 04:00
METAR RJCT 021900Z NIL=

帯広(RJCB)
03/02 20:00
METAR RJCB 021100Z 28006KT 240V310 9999 FEW030 SCT080 M07/M19 Q1002
RMK 1CU030 3AC080 A2960=

旭川M(RJCA)
03/03 04:00
METAR RJCA 021900Z NIL=

旭川C(RJEC)
03/03 04:00
METAR RJEC 021900Z AUTO 25013KT 9999 FEW008 SCT026 M07/M11 Q1005 RMK
A2968=

丘珠(RJCO)
03/03 04:00
METAR RJCO 021900Z NIL=

新千歳(RJCC)
03/03 04:30
METAR RJCC 021930Z 09002KT 9999 FEW015 M16/M18 Q1009 RMK 1ST015
A2982=

千歳(RJCJ)
03/03 04:00
METAR RJCJ 021900Z 16004KT 130V190 9999 FEW020 M15/M16 Q1009 RMK
1CU020 A2981=

奥尻(RJEO)
03/02 14:06
RJEO 020506Z 28027KT 6000 SN SCT020 BKN030 M04/M08 Q1005 RMK A2968=

函館(RJCH)
03/03 04:00
METAR RJCH 021900Z AUTO 31005KT 290V350 9999 FEW023 M06/M09 Q1011
RMK A2985=
Copyright(c) 2014 International Meteorological & Oceanographic Consultants Co,.Ltd. All Rights Reserved. Design by http://f-tpl.com